createdAt,value
2022-10-11T00:02:01.109Z,3.07
2022-10-11T00:04:29.001Z,3.05
2022-10-11T00:07:07.856Z,2.97
2022-10-11T00:09:35.831Z,3.10
2022-10-11T00:12:04.230Z,2.53
2022-10-11T00:14:33.923Z,3.40
2022-10-11T00:17:01.910Z,3.20
2022-10-11T00:19:30.539Z,3.10
2022-10-11T00:22:00.816Z,2.77
2022-10-11T00:24:47.823Z,2.77
2022-10-11T00:27:42.745Z,2.43
2022-10-11T00:30:27.153Z,2.60
2022-10-11T00:33:13.969Z,2.80
2022-10-11T00:35:57.589Z,2.97
2022-10-11T00:38:42.303Z,3.00
2022-10-11T00:41:40.009Z,2.70
2022-10-11T00:44:34.274Z,3.33
2022-10-11T00:47:20.401Z,2.50
2022-10-11T01:00:30.562Z,2.90
2022-10-11T01:03:11.141Z,2.80
2022-10-11T01:05:55.354Z,2.90
2022-10-11T01:11:42.506Z,2.50
2022-10-11T01:15:17.737Z,2.70
2022-10-11T01:18:50.066Z,2.50
2022-10-11T01:21:48.145Z,2.50
2022-10-11T01:24:54.894Z,2.90
2022-10-11T01:32:29.800Z,2.70
2022-10-11T01:55:07.620Z,3.07
2022-10-11T01:57:53.416Z,3.10
2022-10-11T02:00:53.444Z,2.50
2022-10-11T02:03:44.616Z,2.50
2022-10-11T02:06:50.056Z,2.63
2022-10-11T02:10:25.653Z,2.40
2022-10-11T02:13:24.354Z,2.90
2022-10-11T02:16:23.398Z,2.43
2022-10-11T02:19:21.965Z,2.90
2022-10-11T02:32:38.473Z,2.63
2022-10-11T02:46:31.297Z,3.20
2022-10-11T02:49:21.197Z,2.53
2022-10-11T02:52:18.917Z,2.67
2022-10-11T02:55:14.266Z,2.83
2022-10-11T02:58:07.920Z,2.60
2022-10-11T03:11:20.062Z,3.33
2022-10-11T03:14:00.075Z,3.00
2022-10-11T03:16:55.139Z,2.87
2022-10-11T03:30:06.440Z,2.80
2022-10-11T03:33:39.957Z,2.67
2022-10-11T03:36:23.056Z,3.13
2022-10-11T03:49:32.653Z,3.00
2022-10-11T03:59:35.825Z,3.00
2022-10-11T04:03:10.740Z,3.20
2022-10-11T04:16:48.545Z,3.20
2022-10-11T04:20:10.635Z,3.87
2022-10-11T04:23:07.672Z,3.27
2022-10-11T04:25:53.793Z,3.17
2022-10-11T04:28:41.252Z,3.77
2022-10-11T04:31:35.591Z,3.27
2022-10-11T04:34:16.661Z,3.83
2022-10-11T04:37:11.100Z,3.30
2022-10-11T04:39:50.216Z,3.03
2022-10-11T04:42:35.070Z,3.37
2022-10-11T04:45:14.703Z,3.20
2022-10-11T04:47:57.498Z,3.30
2022-10-11T04:50:37.680Z,4.23
2022-10-11T04:53:27.873Z,3.93
2022-10-11T04:56:15.042Z,3.23
2022-10-11T04:59:00.739Z,3.30
2022-10-11T05:12:23.303Z,3.37
2022-10-11T05:15:06.096Z,3.53
2022-10-11T05:28:11.982Z,3.47
2022-10-11T05:30:54.506Z,4.13
2022-10-11T05:33:35.556Z,3.73
2022-10-11T05:36:19.757Z,3.33
2022-10-11T05:39:02.935Z,3.67
2022-10-11T05:42:05.462Z,3.60
2022-10-11T05:45:01.697Z,3.30
2022-10-11T05:47:41.829Z,3.90
2022-10-11T05:51:09.804Z,4.13
2022-10-11T05:53:50.693Z,4.23
2022-10-11T05:56:34.979Z,4.70
2022-10-11T05:59:18.004Z,5.43
2022-10-11T06:02:00.192Z,5.70
2022-10-11T06:04:42.419Z,5.17
2022-10-11T06:07:24.138Z,5.33
2022-10-11T06:10:05.864Z,4.90
2022-10-11T06:12:54.834Z,4.53
2022-10-11T06:15:49.308Z,5.23
2022-10-11T06:18:43.755Z,5.27
2022-10-11T06:21:49.017Z,5.30
2022-10-11T06:24:49.085Z,7.17
2022-10-11T06:27:47.486Z,6.50
2022-10-11T06:30:56.794Z,8.57
2022-10-11T06:33:54.927Z,9.23
2022-10-11T06:50:58.967Z,9.57
2022-10-11T06:53:56.653Z,9.47
2022-10-11T06:56:53.602Z,9.20
2022-10-11T06:59:32.506Z,9.00
2022-10-11T07:02:27.922Z,10.67
2022-10-11T07:05:36.414Z,10.13
2022-10-11T07:09:55.910Z,10.10
2022-10-11T07:12:36.452Z,11.50
2022-10-11T07:15:32.071Z,9.83
2022-10-11T07:18:40.857Z,10.10
2022-10-11T07:21:21.595Z,11.43
2022-10-11T07:24:28.174Z,10.50
2022-10-11T07:27:26.690Z,10.97
2022-10-11T07:30:32.492Z,11.10
2022-10-11T07:33:41.998Z,11.13
2022-10-11T07:36:53.390Z,13.00
2022-10-11T07:39:56.857Z,13.03
2022-10-11T07:43:02.723Z,13.53
2022-10-11T07:56:33.337Z,15.97
2022-10-11T07:59:27.870Z,16.63
2022-10-11T08:02:23.914Z,17.15
2022-10-11T08:05:28.427Z,21.57
2022-10-11T08:08:25.025Z,23.00
2022-10-11T08:11:05.005Z,23.47
2022-10-11T08:14:08.809Z,22.07
2022-10-11T08:16:47.360Z,23.20
2022-10-11T08:19:25.885Z,23.30
2022-10-11T08:22:24.241Z,23.27
2022-10-11T08:25:05.296Z,24.02
2022-10-11T08:28:05.206Z,23.83
2022-10-11T08:31:13.483Z,23.55
2022-10-11T08:34:12.026Z,25.45
2022-10-11T08:37:10.691Z,23.67
2022-10-11T08:39:51.767Z,24.67
2022-10-11T08:42:37.317Z,23.83
2022-10-11T08:45:36.628Z,25.50
2022-10-11T08:48:35.757Z,25.40
2022-10-11T08:51:34.726Z,24.10
2022-10-11T08:54:39.763Z,24.23
2022-10-11T08:57:40.623Z,24.48
2022-10-11T09:01:06.998Z,23.23
2022-10-11T09:04:43.198Z,24.70
2022-10-11T09:18:13.567Z,16.27
2022-10-11T09:21:34.883Z,15.32
2022-10-11T09:24:52.746Z,15.80
2022-10-11T09:28:03.548Z,15.32
2022-10-11T09:30:51.573Z,12.98
2022-10-11T09:33:48.304Z,13.38
2022-10-11T09:36:47.957Z,12.85
2022-10-11T09:39:37.328Z,12.02
2022-10-11T09:42:19.735Z,12.27
2022-10-11T09:44:49.153Z,12.32
2022-10-11T09:47:20.297Z,12.10
2022-10-11T09:50:00.969Z,13.10
2022-10-11T09:58:40.157Z,13.98
2022-10-11T10:01:23.716Z,12.43
2022-10-11T10:04:29.051Z,12.20
2022-10-11T10:07:13.138Z,12.13
2022-10-11T10:09:41.153Z,11.95
2022-10-11T10:12:13.986Z,10.82
2022-10-11T10:14:43.296Z,11.13
2022-10-11T10:17:17.451Z,11.23
2022-10-11T10:19:50.443Z,10.63
2022-10-11T10:22:21.397Z,10.38
2022-10-11T10:24:51.310Z,10.40
2022-10-11T10:27:22.336Z,10.00
2022-10-11T10:30:25.035Z,10.95
2022-10-11T10:33:02.210Z,9.57
2022-10-11T10:40:17.994Z,8.27
2022-10-11T10:42:49.108Z,7.40
2022-10-11T10:45:23.175Z,6.72
2022-10-11T10:48:24.720Z,7.20
2022-10-11T10:51:21.100Z,6.68
2022-10-11T10:54:03.539Z,5.47
2022-10-11T10:56:46.014Z,5.50
2022-10-11T10:59:38.951Z,4.93
2022-10-11T11:02:39.633Z,5.47
2022-10-11T11:09:47.757Z,4.53
2022-10-11T11:12:49.579Z,4.43
2022-10-11T11:15:33.144Z,4.28
2022-10-11T11:18:23.015Z,4.47
2022-10-11T11:21:05.314Z,4.13
2022-10-11T11:23:41.891Z,3.83
2022-10-11T11:26:22.210Z,3.63
2022-10-11T11:29:10.290Z,3.70
2022-10-11T11:32:01.892Z,3.28
2022-10-11T11:34:38.390Z,3.35
2022-10-11T11:37:22.874Z,3.40
2022-10-11T11:39:59.275Z,3.60
2022-10-11T11:42:40.399Z,3.60
2022-10-11T11:45:18.470Z,3.33
2022-10-11T11:47:53.073Z,3.20
2022-10-11T11:50:25.338Z,3.08
2022-10-11T11:52:58.710Z,2.92
2022-10-11T11:55:33.431Z,3.40
2022-10-11T11:58:26.579Z,2.85
2022-10-11T12:01:03.757Z,2.90
2022-10-11T12:03:39.296Z,3.17
2022-10-11T12:06:25.798Z,3.25
2022-10-11T12:12:06.091Z,2.50
2022-10-11T12:14:41.611Z,2.72
2022-10-11T12:21:24.093Z,2.95
2022-10-11T12:23:54.339Z,2.60
2022-10-11T12:26:41.511Z,2.40
2022-10-11T12:29:47.341Z,2.40
2022-10-11T12:32:53.588Z,2.28
2022-10-11T12:36:07.305Z,2.72
2022-10-11T12:38:40.091Z,2.88
2022-10-11T12:41:50.132Z,3.10
2022-10-11T12:44:24.111Z,2.70
2022-10-11T12:47:26.103Z,2.55
2022-10-11T12:50:14.489Z,3.30
2022-10-11T12:52:55.529Z,3.05
2022-10-11T12:55:36.139Z,3.38
2022-10-11T12:58:30.749Z,3.10
2022-10-11T13:01:19.162Z,3.58
2022-10-11T13:03:53.231Z,3.33
2022-10-11T13:06:25.095Z,3.10
2022-10-11T13:09:10.462Z,2.72
2022-10-11T13:11:48.432Z,3.47
2022-10-11T13:14:19.862Z,3.00
2022-10-11T13:17:05.107Z,2.25
2022-10-11T13:19:36.582Z,2.20
2022-10-11T13:22:06.554Z,2.65
2022-10-11T13:24:39.853Z,3.03
2022-10-11T13:27:17.118Z,2.65
2022-10-11T13:29:46.399Z,2.92
2022-10-11T13:32:18.811Z,3.10
2022-10-11T13:34:52.677Z,3.10
2022-10-11T13:37:23.972Z,2.97
2022-10-11T13:43:36.898Z,2.50
2022-10-11T13:46:45.551Z,2.70
2022-10-11T13:54:18.030Z,2.20
2022-10-11T13:56:52.473Z,2.50
2022-10-11T13:59:23.700Z,2.40
2022-10-11T14:21:37.053Z,3.00
2022-10-11T14:24:06.566Z,2.70
2022-10-11T14:26:36.945Z,2.67
2022-10-11T14:29:10.432Z,2.55
2022-10-11T14:31:41.705Z,2.67
2022-10-11T14:34:17.193Z,2.60
2022-10-11T14:36:46.656Z,2.72
2022-10-11T14:39:16.499Z,2.58
2022-10-11T14:41:44.833Z,2.55
2022-10-11T14:44:12.872Z,2.95
2022-10-11T14:46:41.361Z,2.63
2022-10-11T14:49:14.825Z,2.90
2022-10-11T14:51:43.550Z,2.58
2022-10-11T14:54:14.073Z,2.50
2022-10-11T14:56:41.981Z,2.97
2022-10-11T14:59:13.840Z,2.30
2022-10-11T15:01:42.512Z,2.28
2022-10-11T15:04:10.673Z,2.88
2022-10-11T15:06:40.552Z,2.53
2022-10-11T15:09:09.028Z,2.67
2022-10-11T15:11:39.592Z,2.63
2022-10-11T15:14:08.118Z,2.42
2022-10-11T15:16:36.529Z,2.40
2022-10-11T15:19:05.035Z,2.47
2022-10-11T15:21:33.357Z,2.80
2022-10-11T15:24:01.201Z,2.63
2022-10-11T15:26:32.639Z,2.65
2022-10-11T15:29:04.597Z,2.58
2022-10-11T15:31:33.888Z,2.78
2022-10-11T15:34:01.953Z,2.35
2022-10-11T15:36:30.323Z,2.38
2022-10-11T15:38:58.270Z,2.30
2022-10-11T15:41:26.229Z,2.35
2022-10-11T15:43:54.547Z,2.80
2022-10-11T15:46:24.114Z,2.65
2022-10-11T15:48:52.685Z,2.42
2022-10-11T15:51:20.893Z,2.53
2022-10-11T15:53:48.606Z,2.72
2022-10-11T15:56:19.314Z,2.70
2022-10-11T15:58:47.231Z,2.90
2022-10-11T16:01:17.893Z,2.58
2022-10-11T16:03:48.295Z,2.42
2022-10-11T16:06:16.693Z,2.47
2022-10-11T16:08:45.018Z,2.78
2022-10-11T16:11:13.697Z,2.45
2022-10-11T16:13:41.694Z,2.38
2022-10-11T16:16:10.556Z,2.63
2022-10-11T16:18:40.552Z,2.50
2022-10-11T16:21:15.379Z,2.25
2022-10-11T16:23:43.481Z,2.80
2022-10-11T16:26:17.362Z,2.50
2022-10-11T16:28:47.800Z,2.70
2022-10-11T16:31:20.678Z,2.50
2022-10-11T16:33:48.678Z,2.60
2022-10-11T16:36:35.951Z,2.60
2022-10-11T16:39:08.135Z,2.20
2022-10-11T16:41:36.228Z,2.83
2022-10-11T16:44:04.852Z,2.60
2022-10-11T16:46:34.053Z,3.05
2022-10-11T16:49:02.056Z,2.42
2022-10-11T16:51:31.295Z,2.83
2022-10-11T16:53:59.693Z,2.58
2022-10-11T16:56:27.890Z,2.78
2022-10-11T16:58:56.325Z,2.17
2022-10-11T17:01:25.248Z,2.70
2022-10-11T17:03:54.036Z,2.65
2022-10-11T17:06:21.778Z,2.67
2022-10-11T17:08:50.936Z,2.50
2022-10-11T17:11:18.965Z,2.67
2022-10-11T17:13:46.985Z,2.42
2022-10-11T17:16:15.132Z,3.00
2022-10-11T17:18:42.911Z,2.60
2022-10-11T17:21:14.226Z,2.53
2022-10-11T17:23:42.664Z,2.80
2022-10-11T17:26:16.178Z,2.72
2022-10-11T17:28:44.223Z,2.85
2022-10-11T17:31:12.582Z,2.58
2022-10-11T17:33:40.554Z,5.10
2022-10-11T17:36:17.898Z,8.40
2022-10-11T17:38:45.805Z,3.30
2022-10-11T17:41:15.032Z,3.20
2022-10-11T17:43:43.167Z,2.53
2022-10-11T17:46:13.282Z,3.33
2022-10-11T17:48:41.361Z,2.67
2022-10-11T17:51:10.754Z,3.30
2022-10-11T17:53:40.525Z,3.10
2022-10-11T17:56:11.488Z,3.27
2022-10-11T17:58:41.121Z,3.30
2022-10-11T18:01:11.961Z,2.93
2022-10-11T18:03:40.372Z,3.37
2022-10-11T18:06:10.123Z,3.60
2022-10-11T18:08:40.832Z,4.37
2022-10-11T18:11:12.064Z,3.97
2022-10-11T18:13:45.808Z,3.70
2022-10-11T18:16:14.634Z,3.63
2022-10-11T18:18:43.332Z,3.87
2022-10-11T18:21:12.487Z,3.13
2022-10-11T18:23:41.385Z,3.27
2022-10-11T18:26:11.752Z,3.57
2022-10-11T18:28:42.198Z,3.13
2022-10-11T18:31:13.936Z,2.90
2022-10-11T18:33:43.464Z,3.50
2022-10-11T18:36:14.041Z,3.33
2022-10-11T18:38:46.359Z,4.07
2022-10-11T18:41:19.089Z,3.30
2022-10-11T18:43:52.398Z,3.67
2022-10-11T18:46:22.196Z,3.47
2022-10-11T18:48:52.468Z,3.60
2022-10-11T18:51:22.889Z,3.33
2022-10-11T18:53:51.414Z,3.60
2022-10-11T18:56:21.994Z,3.97
2022-10-11T18:58:53.878Z,3.10
2022-10-11T19:01:24.023Z,4.03
2022-10-11T19:03:54.086Z,3.60
2022-10-11T19:06:25.013Z,4.17
2022-10-11T19:09:01.232Z,4.17
2022-10-11T19:11:29.490Z,3.77
2022-10-11T19:14:02.011Z,4.20
2022-10-11T19:16:31.689Z,3.50
2022-10-11T19:19:00.029Z,3.80
2022-10-11T19:21:31.583Z,4.10
2022-10-11T19:24:00.425Z,3.80
2022-10-11T19:26:31.305Z,4.00
2022-10-11T19:29:03.447Z,5.13
2022-10-11T19:31:33.459Z,4.60
2022-10-11T19:34:04.450Z,4.47
2022-10-11T19:36:36.624Z,4.00
2022-10-11T19:39:06.275Z,3.87
2022-10-11T19:41:34.674Z,3.80
2022-10-11T19:44:04.863Z,3.53
2022-10-11T19:46:50.375Z,4.43
2022-10-11T19:49:21.492Z,4.40
2022-10-11T19:51:49.610Z,4.50
2022-10-11T19:54:18.101Z,4.60
2022-10-11T19:56:46.117Z,4.00
2022-10-11T19:59:17.513Z,4.33
2022-10-11T20:01:52.307Z,3.80
2022-10-11T20:07:17.702Z,4.73
2022-10-11T20:09:45.945Z,4.00
2022-10-11T20:12:20.423Z,4.20
2022-10-11T20:15:07.568Z,4.70
2022-10-11T20:17:50.646Z,5.00
2022-10-11T20:21:04.319Z,4.40
2022-10-11T20:23:38.565Z,4.10
2022-10-11T20:26:37.720Z,4.50
2022-10-11T20:29:14.426Z,4.00
2022-10-11T20:31:48.389Z,4.80
2022-10-11T20:34:17.503Z,4.23
2022-10-11T20:36:49.381Z,4.57
2022-10-11T20:39:24.411Z,4.53
2022-10-11T20:41:54.484Z,4.23
2022-10-11T20:44:22.702Z,4.30
2022-10-11T20:47:01.636Z,4.17
2022-10-11T20:49:37.343Z,3.80
2022-10-11T20:52:08.765Z,4.47
2022-10-11T20:54:37.289Z,4.43
2022-10-11T20:57:07.802Z,5.00
2022-10-11T20:59:36.346Z,4.80
2022-10-11T21:02:06.239Z,4.90
2022-10-11T21:04:34.466Z,4.40
2022-10-11T21:07:02.529Z,4.37
2022-10-11T21:09:30.730Z,5.00
2022-10-11T21:11:58.722Z,4.27
2022-10-11T21:14:26.690Z,4.43
2022-10-11T21:16:57.260Z,5.17
2022-10-11T21:19:27.117Z,5.00
2022-10-11T21:21:55.841Z,4.80
2022-10-11T21:24:23.843Z,5.27
2022-10-11T21:26:51.729Z,5.00
2022-10-11T21:29:19.649Z,5.20
2022-10-11T21:31:47.548Z,5.17
2022-10-11T21:34:16.536Z,4.93
2022-10-11T21:36:46.721Z,4.90
2022-10-11T21:39:14.949Z,4.43
2022-10-11T21:41:43.603Z,5.03
2022-10-11T21:44:11.718Z,4.63
2022-10-11T21:47:05.525Z,4.70
2022-10-11T21:49:28.113Z,5.03
2022-10-11T21:51:58.285Z,5.27
2022-10-11T21:54:26.188Z,4.83
2022-10-11T21:56:54.469Z,5.40
2022-10-11T21:59:23.050Z,5.00
2022-10-11T22:01:51.727Z,5.40
2022-10-11T22:04:20.006Z,5.43
2022-10-11T22:06:48.259Z,4.63
2022-10-11T22:09:17.612Z,5.33
2022-10-11T22:11:45.540Z,4.77
2022-10-11T22:14:13.985Z,4.87
2022-10-11T22:16:41.998Z,4.67
2022-10-11T22:19:10.233Z,5.10
2022-10-11T22:21:42.628Z,5.20
2022-10-11T22:24:13.404Z,5.17
2022-10-11T22:26:42.701Z,5.73
2022-10-11T22:29:12.838Z,5.10
2022-10-11T22:31:41.449Z,6.07
2022-10-11T22:34:09.404Z,5.60
2022-10-11T22:36:37.196Z,5.37
2022-10-11T22:39:07.920Z,5.40
2022-10-11T22:41:38.299Z,4.80
2022-10-11T22:44:10.414Z,5.20
2022-10-11T22:46:38.217Z,5.77
2022-10-11T22:49:07.698Z,5.83
2022-10-11T22:51:35.854Z,5.20
2022-10-11T22:54:03.689Z,5.30
2022-10-11T22:56:31.533Z,4.40
2022-10-11T22:58:59.734Z,5.00
2022-10-11T23:01:28.990Z,5.47
2022-10-11T23:03:56.829Z,5.03
2022-10-11T23:06:25.443Z,5.40
2022-10-11T23:08:54.188Z,4.67
2022-10-11T23:11:22.183Z,5.00
2022-10-11T23:13:51.220Z,4.50
2022-10-11T23:16:20.560Z,4.87
2022-10-11T23:18:52.993Z,4.90
2022-10-11T23:21:21.499Z,5.30
2022-10-11T23:23:49.416Z,5.37
2022-10-11T23:26:17.945Z,5.10
2022-10-11T23:28:46.249Z,6.37
2022-10-11T23:31:16.582Z,5.00
2022-10-11T23:33:44.753Z,4.77
2022-10-11T23:36:16.911Z,4.77
2022-10-11T23:38:45.178Z,5.20
2022-10-11T23:41:12.925Z,5.03
2022-10-11T23:43:40.820Z,4.83
2022-10-11T23:46:08.736Z,5.37
2022-10-11T23:48:36.541Z,5.23
2022-10-11T23:51:04.485Z,5.50
2022-10-11T23:53:34.124Z,5.03
2022-10-11T23:56:01.957Z,5.40
2022-10-11T23:58:29.737Z,4.80
